sensor_id;sensor_type;location;lat;lon;timestamp;P1;durP1;ratioP1;P2;durP2;ratioP2
78430;SDS011;67727;50.236;22.452;2023-04-15T00:00:45;8.00;;;4.70;;
78430;SDS011;67727;50.236;22.452;2023-04-15T00:03:14;9.40;;;5.40;;
78430;SDS011;67727;50.236;22.452;2023-04-15T00:05:41;12.30;;;5.00;;
78430;SDS011;67727;50.236;22.452;2023-04-15T00:08:08;6.30;;;4.80;;
78430;SDS011;67727;50.236;22.452;2023-04-15T00:10:35;6.90;;;5.10;;
78430;SDS011;67727;50.236;22.452;2023-04-15T00:13:02;7.80;;;5.10;;
78430;SDS011;67727;50.236;22.452;2023-04-15T00:15:29;6.90;;;4.80;;
78430;SDS011;67727;50.236;22.452;2023-04-15T00:17:57;9.50;;;5.10;;
78430;SDS011;67727;50.236;22.452;2023-04-15T00:20:24;7.50;;;5.10;;
78430;SDS011;67727;50.236;22.452;2023-04-15T00:22:50;6.90;;;4.40;;
78430;SDS011;67727;50.236;22.452;2023-04-15T00:25:17;7.60;;;5.00;;
78430;SDS011;67727;50.236;22.452;2023-04-15T00:27:44;7.30;;;4.90;;
78430;SDS011;67727;50.236;22.452;2023-04-15T00:30:11;10.90;;;4.60;;
78430;SDS011;67727;50.236;22.452;2023-04-15T00:32:38;7.70;;;4.50;;
78430;SDS011;67727;50.236;22.452;2023-04-15T00:35:05;8.30;;;5.40;;
78430;SDS011;67727;50.236;22.452;2023-04-15T00:37:34;7.90;;;4.90;;
78430;SDS011;67727;50.236;22.452;2023-04-15T00:40:02;7.10;;;5.10;;
78430;SDS011;67727;50.236;22.452;2023-04-15T00:42:31;7.90;;;4.90;;
78430;SDS011;67727;50.236;22.452;2023-04-15T00:44:58;6.90;;;5.60;;
78430;SDS011;67727;50.236;22.452;2023-04-15T00:47:25;7.30;;;5.30;;
78430;SDS011;67727;50.236;22.452;2023-04-15T00:49:55;6.80;;;5.00;;
78430;SDS011;67727;50.236;22.452;2023-04-15T00:52:22;6.30;;;4.50;;
78430;SDS011;67727;50.236;22.452;2023-04-15T00:54:48;7.80;;;5.40;;
78430;SDS011;67727;50.236;22.452;2023-04-15T00:57:16;8.30;;;5.50;;
78430;SDS011;67727;50.236;22.452;2023-04-15T00:59:47;7.30;;;5.50;;
78430;SDS011;67727;50.236;22.452;2023-04-15T01:02:14;7.40;;;5.70;;
78430;SDS011;67727;50.236;22.452;2023-04-15T01:04:42;7.50;;;6.00;;
78430;SDS011;67727;50.236;22.452;2023-04-15T01:07:08;5.70;;;5.00;;
78430;SDS011;67727;50.236;22.452;2023-04-15T01:09:35;8.90;;;5.30;;
78430;SDS011;67727;50.236;22.452;2023-04-15T01:12:03;9.50;;;5.40;;
78430;SDS011;67727;50.236;22.452;2023-04-15T01:14:30;8.50;;;5.70;;
78430;SDS011;67727;50.236;22.452;2023-04-15T01:16:59;12.10;;;5.80;;
78430;SDS011;67727;50.236;22.452;2023-04-15T01:19:26;9.10;;;6.00;;
78430;SDS011;67727;50.236;22.452;2023-04-15T01:21:54;6.80;;;5.00;;
78430;SDS011;67727;50.236;22.452;2023-04-15T01:26:48;8.70;;;6.10;;
78430;SDS011;67727;50.236;22.452;2023-04-15T01:29:15;8.30;;;6.40;;
78430;SDS011;67727;50.236;22.452;2023-04-15T01:31:53;10.20;;;6.30;;
78430;SDS011;67727;50.236;22.452;2023-04-15T01:34:21;9.50;;;6.30;;
78430;SDS011;67727;50.236;22.452;2023-04-15T01:36:48;7.40;;;5.40;;
78430;SDS011;67727;50.236;22.452;2023-04-15T01:39:15;10.50;;;6.00;;
78430;SDS011;67727;50.236;22.452;2023-04-15T01:41:42;10.60;;;5.60;;
78430;SDS011;67727;50.236;22.452;2023-04-15T01:44:09;6.50;;;4.80;;
78430;SDS011;67727;50.236;22.452;2023-04-15T01:46:36;10.70;;;5.60;;
78430;SDS011;67727;50.236;22.452;2023-04-15T01:49:03;8.10;;;5.50;;
78430;SDS011;67727;50.236;22.452;2023-04-15T01:51:30;5.70;;;5.10;;
78430;SDS011;67727;50.236;22.452;2023-04-15T01:53:57;8.00;;;5.50;;
78430;SDS011;67727;50.236;22.452;2023-04-15T01:56:24;7.50;;;5.70;;
78430;SDS011;67727;50.236;22.452;2023-04-15T01:58:51;6.80;;;5.10;;
78430;SDS011;67727;50.236;22.452;2023-04-15T02:01:18;5.50;;;4.20;;
78430;SDS011;67727;50.236;22.452;2023-04-15T02:03:45;5.70;;;4.40;;
78430;SDS011;67727;50.236;22.452;2023-04-15T02:06:12;5.50;;;4.10;;
78430;SDS011;67727;50.236;22.452;2023-04-15T02:08:39;5.70;;;4.50;;
78430;SDS011;67727;50.236;22.452;2023-04-15T02:11:06;5.90;;;4.20;;
78430;SDS011;67727;50.236;22.452;2023-04-15T02:13:33;9.10;;;5.30;;
78430;SDS011;67727;50.236;22.452;2023-04-15T02:16:00;5.60;;;4.40;;
78430;SDS011;67727;50.236;22.452;2023-04-15T02:18:27;5.60;;;4.30;;
78430;SDS011;67727;50.236;22.452;2023-04-15T02:20:54;6.10;;;4.30;;
78430;SDS011;67727;50.236;22.452;2023-04-15T02:23:22;6.60;;;4.90;;
78430;SDS011;67727;50.236;22.452;2023-04-15T02:25:49;5.90;;;4.60;;
78430;SDS011;67727;50.236;22.452;2023-04-15T02:28:17;11.20;;;5.20;;
78430;SDS011;67727;50.236;22.452;2023-04-15T02:30:46;8.00;;;5.60;;
78430;SDS011;67727;50.236;22.452;2023-04-15T02:33:13;8.60;;;5.50;;
78430;SDS011;67727;50.236;22.452;2023-04-15T02:35:40;8.70;;;6.50;;
78430;SDS011;67727;50.236;22.452;2023-04-15T02:38:09;18.70;;;10.00;;
78430;SDS011;67727;50.236;22.452;2023-04-15T02:43:03;34.90;;;14.10;;
78430;SDS011;67727;50.236;22.452;2023-04-15T02:45:32;40.00;;;16.40;;
78430;SDS011;67727;50.236;22.452;2023-04-15T02:47:59;20.10;;;11.00;;
78430;SDS011;67727;50.236;22.452;2023-04-15T02:50:31;8.80;;;6.30;;
78430;SDS011;67727;50.236;22.452;2023-04-15T02:52:58;8.20;;;6.20;;
78430;SDS011;67727;50.236;22.452;2023-04-15T02:55:26;9.90;;;8.10;;
78430;SDS011;67727;50.236;22.452;2023-04-15T02:57:53;16.10;;;13.70;;
78430;SDS011;67727;50.236;22.452;2023-04-15T03:00:22;10.20;;;8.60;;
78430;SDS011;67727;50.236;22.452;2023-04-15T03:02:50;10.80;;;7.90;;
78430;SDS011;67727;50.236;22.452;2023-04-15T03:05:21;27.30;;;24.60;;
78430;SDS011;67727;50.236;22.452;2023-04-15T03:07:51;18.70;;;16.40;;
78430;SDS011;67727;50.236;22.452;2023-04-15T03:10:18;9.60;;;7.40;;
78430;SDS011;67727;50.236;22.452;2023-04-15T03:12:46;8.40;;;6.40;;
78430;SDS011;67727;50.236;22.452;2023-04-15T03:15:13;10.00;;;6.50;;
78430;SDS011;67727;50.236;22.452;2023-04-15T03:17:40;10.10;;;7.40;;
78430;SDS011;67727;50.236;22.452;2023-04-15T03:20:07;9.30;;;7.60;;
78430;SDS011;67727;50.236;22.452;2023-04-15T03:22:35;9.50;;;7.20;;
78430;SDS011;67727;50.236;22.452;2023-04-15T03:25:02;18.20;;;13.80;;
78430;SDS011;67727;50.236;22.452;2023-04-15T03:27:29;17.70;;;15.90;;
78430;SDS011;67727;50.236;22.452;2023-04-15T03:29:56;12.90;;;10.00;;
78430;SDS011;67727;50.236;22.452;2023-04-15T03:32:23;11.20;;;7.80;;
78430;SDS011;67727;50.236;22.452;2023-04-15T03:34:50;9.50;;;7.50;;
78430;SDS011;67727;50.236;22.452;2023-04-15T03:37:16;8.70;;;6.60;;
78430;SDS011;67727;50.236;22.452;2023-04-15T03:39:45;9.20;;;7.10;;
78430;SDS011;67727;50.236;22.452;2023-04-15T03:44:40;9.60;;;6.50;;
78430;SDS011;67727;50.236;22.452;2023-04-15T03:47:11;10.40;;;7.30;;
78430;SDS011;67727;50.236;22.452;2023-04-15T03:49:50;9.80;;;6.80;;
78430;SDS011;67727;50.236;22.452;2023-04-15T03:52:21;10.20;;;7.10;;
78430;SDS011;67727;50.236;22.452;2023-04-15T03:54:48;10.30;;;7.10;;
78430;SDS011;67727;50.236;22.452;2023-04-15T03:57:22;10.40;;;7.10;;
78430;SDS011;67727;50.236;22.452;2023-04-15T03:59:49;7.70;;;6.10;;
78430;SDS011;67727;50.236;22.452;2023-04-15T04:02:19;11.10;;;7.20;;
78430;SDS011;67727;50.236;22.452;2023-04-15T04:04:46;9.60;;;6.80;;
78430;SDS011;67727;50.236;22.452;2023-04-15T04:07:18;10.80;;;8.10;;
78430;SDS011;67727;50.236;22.452;2023-04-15T04:09:47;9.20;;;6.20;;
78430;SDS011;67727;50.236;22.452;2023-04-15T04:12:20;12.40;;;8.70;;
78430;SDS011;67727;50.236;22.452;2023-04-15T04:14:50;10.20;;;8.10;;
78430;SDS011;67727;50.236;22.452;2023-04-15T04:17:23;10.50;;;7.00;;
78430;SDS011;67727;50.236;22.452;2023-04-15T04:19:58;7.70;;;5.90;;
78430;SDS011;67727;50.236;22.452;2023-04-15T04:22:30;8.70;;;7.00;;
78430;SDS011;67727;50.236;22.452;2023-04-15T04:25:00;8.20;;;6.60;;
78430;SDS011;67727;50.236;22.452;2023-04-15T04:27:29;11.40;;;6.60;;
78430;SDS011;67727;50.236;22.452;2023-04-15T04:30:09;10.50;;;6.80;;
78430;SDS011;67727;50.236;22.452;2023-04-15T04:32:54;9.60;;;6.50;;
78430;SDS011;67727;50.236;22.452;2023-04-15T04:35:23;8.30;;;5.90;;
78430;SDS011;67727;50.236;22.452;2023-04-15T04:42:58;8.80;;;6.50;;
78430;SDS011;67727;50.236;22.452;2023-04-15T04:45:28;9.30;;;6.70;;
78430;SDS011;67727;50.236;22.452;2023-04-15T04:47:57;9.50;;;7.00;;
78430;SDS011;67727;50.236;22.452;2023-04-15T04:50:35;9.20;;;7.80;;
78430;SDS011;67727;50.236;22.452;2023-04-15T04:53:10;9.70;;;7.90;;
78430;SDS011;67727;50.236;22.452;2023-04-15T04:55:51;11.20;;;8.10;;
78430;SDS011;67727;50.236;22.452;2023-04-15T04:58:22;9.80;;;7.30;;
78430;SDS011;67727;50.236;22.452;2023-04-15T05:00:58;10.00;;;6.60;;
78430;SDS011;67727;50.236;22.452;2023-04-15T05:03:33;11.30;;;6.60;;
78430;SDS011;67727;50.236;22.452;2023-04-15T05:06:04;10.30;;;7.00;;
78430;SDS011;67727;50.236;22.452;2023-04-15T05:08:38;10.60;;;7.80;;
78430;SDS011;67727;50.236;22.452;2023-04-15T05:11:13;9.80;;;7.10;;
78430;SDS011;67727;50.236;22.452;2023-04-15T05:13:48;17.80;;;12.80;;
78430;SDS011;67727;50.236;22.452;2023-04-15T05:16:21;15.20;;;11.70;;
78430;SDS011;67727;50.236;22.452;2023-04-15T05:19:14;14.70;;;10.00;;
78430;SDS011;67727;50.236;22.452;2023-04-15T05:21:49;10.60;;;9.40;;
78430;SDS011;67727;50.236;22.452;2023-04-15T05:24:19;12.40;;;8.30;;
78430;SDS011;67727;50.236;22.452;2023-04-15T05:26:50;11.60;;;8.00;;
78430;SDS011;67727;50.236;22.452;2023-04-15T05:29:23;23.60;;;17.00;;
78430;SDS011;67727;50.236;22.452;2023-04-15T05:31:54;30.70;;;16.30;;
78430;SDS011;67727;50.236;22.452;2023-04-15T05:34:33;14.10;;;9.10;;
78430;SDS011;67727;50.236;22.452;2023-04-15T05:37:01;14.10;;;9.50;;
78430;SDS011;67727;50.236;22.452;2023-04-15T05:39:34;17.60;;;10.60;;
78430;SDS011;67727;50.236;22.452;2023-04-15T05:42:06;16.50;;;10.90;;
78430;SDS011;67727;50.236;22.452;2023-04-15T05:44:54;13.20;;;8.40;;
78430;SDS011;67727;50.236;22.452;2023-04-15T05:47:30;11.00;;;8.30;;
78430;SDS011;67727;50.236;22.452;2023-04-15T05:50:05;11.70;;;8.30;;
78430;SDS011;67727;50.236;22.452;2023-04-15T05:53:04;12.60;;;8.00;;
78430;SDS011;67727;50.236;22.452;2023-04-15T05:58:05;13.20;;;8.10;;
78430;SDS011;67727;50.236;22.452;2023-04-15T06:00:34;11.30;;;8.50;;
78430;SDS011;67727;50.236;22.452;2023-04-15T06:03:26;12.80;;;8.60;;
78430;SDS011;67727;50.236;22.452;2023-04-15T06:05:57;10.80;;;8.20;;
78430;SDS011;67727;50.236;22.452;2023-04-15T06:08:33;11.00;;;8.20;;
78430;SDS011;67727;50.236;22.452;2023-04-15T06:11:10;11.90;;;9.30;;
78430;SDS011;67727;50.236;22.452;2023-04-15T06:14:00;21.60;;;13.00;;
78430;SDS011;67727;50.236;22.452;2023-04-15T06:16:37;11.80;;;9.00;;
78430;SDS011;67727;50.236;22.452;2023-04-15T06:19:16;15.90;;;9.10;;
78430;SDS011;67727;50.236;22.452;2023-04-15T06:22:12;16.30;;;9.40;;
78430;SDS011;67727;50.236;22.452;2023-04-15T06:25:07;22.80;;;13.70;;
78430;SDS011;67727;50.236;22.452;2023-04-15T06:27:47;35.20;;;16.00;;
78430;SDS011;67727;50.236;22.452;2023-04-15T06:30:30;21.80;;;12.80;;
78430;SDS011;67727;50.236;22.452;2023-04-15T06:33:21;16.90;;;9.60;;
78430;SDS011;67727;50.236;22.452;2023-04-15T06:36:04;13.50;;;8.40;;
78430;SDS011;67727;50.236;22.452;2023-04-15T06:38:39;13.70;;;8.40;;
78430;SDS011;67727;50.236;22.452;2023-04-15T06:41:08;18.10;;;8.60;;
78430;SDS011;67727;50.236;22.452;2023-04-15T06:43:38;11.70;;;8.10;;
78430;SDS011;67727;50.236;22.452;2023-04-15T06:46:09;12.20;;;8.20;;
78430;SDS011;67727;50.236;22.452;2023-04-15T06:48:37;10.00;;;7.50;;
78430;SDS011;67727;50.236;22.452;2023-04-15T06:51:11;10.30;;;6.10;;
78430;SDS011;67727;50.236;22.452;2023-04-15T06:53:51;8.30;;;5.60;;
78430;SDS011;67727;50.236;22.452;2023-04-15T06:56:24;8.90;;;5.60;;
78430;SDS011;67727;50.236;22.452;2023-04-15T06:58:54;7.40;;;4.30;;
78430;SDS011;67727;50.236;22.452;2023-04-15T07:01:25;6.50;;;4.40;;
78430;SDS011;67727;50.236;22.452;2023-04-15T07:03:55;7.80;;;5.30;;
78430;SDS011;67727;50.236;22.452;2023-04-15T07:06:31;6.10;;;4.20;;
78430;SDS011;67727;50.236;22.452;2023-04-15T07:09:01;6.40;;;4.30;;
78430;SDS011;67727;50.236;22.452;2023-04-15T07:11:38;6.10;;;3.50;;
78430;SDS011;67727;50.236;22.452;2023-04-15T07:14:14;5.40;;;3.70;;
78430;SDS011;67727;50.236;22.452;2023-04-15T08:16:41;9.00;;;3.80;;
78430;SDS011;67727;50.236;22.452;2023-04-15T08:19:09;4.50;;;3.00;;
78430;SDS011;67727;50.236;22.452;2023-04-15T08:22:00;6.90;;;3.70;;
78430;SDS011;67727;50.236;22.452;2023-04-15T08:25:05;9.90;;;6.50;;
78430;SDS011;67727;50.236;22.452;2023-04-15T08:28:15;7.20;;;4.40;;
78430;SDS011;67727;50.236;22.452;2023-04-15T08:31:00;10.20;;;6.20;;
78430;SDS011;67727;50.236;22.452;2023-04-15T08:33:41;5.80;;;3.80;;
78430;SDS011;67727;50.236;22.452;2023-04-15T08:36:14;4.10;;;3.10;;
78430;SDS011;67727;50.236;22.452;2023-04-15T08:38:46;5.60;;;3.00;;
78430;SDS011;67727;50.236;22.452;2023-04-15T08:41:25;5.40;;;3.10;;
78430;SDS011;67727;50.236;22.452;2023-04-15T08:44:16;5.50;;;3.60;;
78430;SDS011;67727;50.236;22.452;2023-04-15T08:47:07;5.90;;;3.30;;
78430;SDS011;67727;50.236;22.452;2023-04-15T08:49:51;6.00;;;3.20;;
78430;SDS011;67727;50.236;22.452;2023-04-15T08:52:41;6.30;;;3.00;;
78430;SDS011;67727;50.236;22.452;2023-04-15T08:55:21;5.80;;;3.60;;
78430;SDS011;67727;50.236;22.452;2023-04-15T08:57:52;7.80;;;3.90;;
78430;SDS011;67727;50.236;22.452;2023-04-15T09:00:27;4.90;;;4.10;;
78430;SDS011;67727;50.236;22.452;2023-04-15T09:03:05;6.40;;;3.70;;
78430;SDS011;67727;50.236;22.452;2023-04-15T09:05:54;8.70;;;4.50;;
78430;SDS011;67727;50.236;22.452;2023-04-15T09:08:57;6.60;;;4.30;;
78430;SDS011;67727;50.236;22.452;2023-04-15T09:11:31;5.90;;;4.20;;
78430;SDS011;67727;50.236;22.452;2023-04-15T09:14:07;7.10;;;3.70;;
78430;SDS011;67727;50.236;22.452;2023-04-15T09:17:03;7.20;;;3.90;;
78430;SDS011;67727;50.236;22.452;2023-04-15T09:19:33;5.30;;;4.40;;
78430;SDS011;67727;50.236;22.452;2023-04-15T09:22:04;5.10;;;3.60;;
78430;SDS011;67727;50.236;22.452;2023-04-15T09:24:58;4.60;;;3.40;;
78430;SDS011;67727;50.236;22.452;2023-04-15T09:27:26;4.30;;;3.50;;
78430;SDS011;67727;50.236;22.452;2023-04-15T09:30:13;7.00;;;4.40;;
78430;SDS011;67727;50.236;22.452;2023-04-15T09:32:52;6.10;;;4.50;;
78430;SDS011;67727;50.236;22.452;2023-04-15T09:35:37;5.20;;;4.00;;
78430;SDS011;67727;50.236;22.452;2023-04-15T09:38:08;6.20;;;4.60;;
78430;SDS011;67727;50.236;22.452;2023-04-15T09:40:39;7.20;;;3.70;;
78430;SDS011;67727;50.236;22.452;2023-04-15T09:43:10;4.60;;;3.10;;
78430;SDS011;67727;50.236;22.452;2023-04-15T09:45:49;4.90;;;3.20;;
78430;SDS011;67727;50.236;22.452;2023-04-15T09:48:23;4.10;;;3.00;;
78430;SDS011;67727;50.236;22.452;2023-04-15T09:50:59;9.00;;;3.70;;
78430;SDS011;67727;50.236;22.452;2023-04-15T09:53:38;5.40;;;3.60;;
78430;SDS011;67727;50.236;22.452;2023-04-15T09:56:09;8.90;;;3.80;;
78430;SDS011;67727;50.236;22.452;2023-04-15T09:58:42;4.40;;;2.80;;
78430;SDS011;67727;50.236;22.452;2023-04-15T10:01:17;4.60;;;3.00;;
78430;SDS011;67727;50.236;22.452;2023-04-15T10:03:48;9.10;;;3.10;;
78430;SDS011;67727;50.236;22.452;2023-04-15T10:06:37;4.00;;;2.50;;
78430;SDS011;67727;50.236;22.452;2023-04-15T10:09:13;3.70;;;2.40;;
78430;SDS011;67727;50.236;22.452;2023-04-15T10:12:05;3.40;;;2.40;;
78430;SDS011;67727;50.236;22.452;2023-04-15T10:14:41;4.00;;;2.40;;
78430;SDS011;67727;50.236;22.452;2023-04-15T10:17:20;8.50;;;2.70;;
78430;SDS011;67727;50.236;22.452;2023-04-15T10:19:53;5.60;;;3.40;;
78430;SDS011;67727;50.236;22.452;2023-04-15T10:22:34;5.00;;;2.60;;
78430;SDS011;67727;50.236;22.452;2023-04-15T10:25:14;3.80;;;2.60;;
78430;SDS011;67727;50.236;22.452;2023-04-15T10:27:52;4.60;;;3.10;;
78430;SDS011;67727;50.236;22.452;2023-04-15T10:30:32;4.90;;;2.80;;
78430;SDS011;67727;50.236;22.452;2023-04-15T10:33:07;3.70;;;2.50;;
78430;SDS011;67727;50.236;22.452;2023-04-15T10:35:58;5.90;;;2.90;;
78430;SDS011;67727;50.236;22.452;2023-04-15T10:38:41;6.20;;;2.70;;
78430;SDS011;67727;50.236;22.452;2023-04-15T10:41:38;4.30;;;2.60;;
78430;SDS011;67727;50.236;22.452;2023-04-15T10:44:29;4.30;;;3.40;;
78430;SDS011;67727;50.236;22.452;2023-04-15T10:47:05;2.80;;;2.30;;
78430;SDS011;67727;50.236;22.452;2023-04-15T10:49:42;5.40;;;2.20;;
78430;SDS011;67727;50.236;22.452;2023-04-15T10:52:29;4.30;;;2.30;;
78430;SDS011;67727;50.236;22.452;2023-04-15T10:55:24;3.20;;;2.30;;
78430;SDS011;67727;50.236;22.452;2023-04-15T10:57:58;5.30;;;2.80;;
78430;SDS011;67727;50.236;22.452;2023-04-15T11:00:35;5.60;;;2.80;;
78430;SDS011;67727;50.236;22.452;2023-04-15T11:03:37;4.40;;;3.50;;
78430;SDS011;67727;50.236;22.452;2023-04-15T11:06:27;3.60;;;3.10;;
78430;SDS011;67727;50.236;22.452;2023-04-15T11:09:47;5.70;;;2.70;;
78430;SDS011;67727;50.236;22.452;2023-04-15T11:12:32;8.70;;;4.20;;
78430;SDS011;67727;50.236;22.452;2023-04-15T11:15:36;5.00;;;3.10;;
78430;SDS011;67727;50.236;22.452;2023-04-15T11:19:06;3.00;;;2.00;;
78430;SDS011;67727;50.236;22.452;2023-04-15T11:22:08;4.80;;;2.40;;
78430;SDS011;67727;50.236;22.452;2023-04-15T11:25:02;3.30;;;2.10;;
78430;SDS011;67727;50.236;22.452;2023-04-15T11:27:55;4.30;;;2.80;;
78430;SDS011;67727;50.236;22.452;2023-04-15T11:30:42;4.80;;;3.00;;
78430;SDS011;67727;50.236;22.452;2023-04-15T11:33:33;3.50;;;2.50;;
78430;SDS011;67727;50.236;22.452;2023-04-15T11:36:10;3.80;;;2.70;;
78430;SDS011;67727;50.236;22.452;2023-04-15T11:39:14;7.60;;;3.20;;
78430;SDS011;67727;50.236;22.452;2023-04-15T11:42:00;5.20;;;2.50;;
78430;SDS011;67727;50.236;22.452;2023-04-15T11:44:30;4.90;;;3.00;;
78430;SDS011;67727;50.236;22.452;2023-04-15T11:47:24;5.00;;;2.90;;
78430;SDS011;67727;50.236;22.452;2023-04-15T11:50:32;3.10;;;2.00;;
78430;SDS011;67727;50.236;22.452;2023-04-15T11:53:13;3.00;;;2.40;;
78430;SDS011;67727;50.236;22.452;2023-04-15T11:55:50;3.60;;;2.10;;
78430;SDS011;67727;50.236;22.452;2023-04-15T11:58:37;5.20;;;2.70;;
78430;SDS011;67727;50.236;22.452;2023-04-15T12:01:20;4.10;;;2.60;;
78430;SDS011;67727;50.236;22.452;2023-04-15T12:04:19;4.00;;;2.40;;
78430;SDS011;67727;50.236;22.452;2023-04-15T12:07:15;2.40;;;1.90;;
78430;SDS011;67727;50.236;22.452;2023-04-15T12:10:03;3.30;;;2.20;;
78430;SDS011;67727;50.236;22.452;2023-04-15T12:12:39;4.10;;;2.20;;
78430;SDS011;67727;50.236;22.452;2023-04-15T12:15:21;4.30;;;2.50;;
78430;SDS011;67727;50.236;22.452;2023-04-15T12:18:17;3.30;;;1.90;;
78430;SDS011;67727;50.236;22.452;2023-04-15T12:24:02;3.60;;;2.20;;
78430;SDS011;67727;50.236;22.452;2023-04-15T12:26:53;6.10;;;2.80;;
78430;SDS011;67727;50.236;22.452;2023-04-15T12:29:30;4.20;;;2.50;;
78430;SDS011;67727;50.236;22.452;2023-04-15T12:32:20;3.80;;;2.20;;
78430;SDS011;67727;50.236;22.452;2023-04-15T12:34:58;5.00;;;2.80;;
78430;SDS011;67727;50.236;22.452;2023-04-15T12:37:50;5.10;;;3.10;;
78430;SDS011;67727;50.236;22.452;2023-04-15T12:40:38;7.00;;;3.40;;
78430;SDS011;67727;50.236;22.452;2023-04-15T12:43:28;8.60;;;4.20;;
78430;SDS011;67727;50.236;22.452;2023-04-15T12:46:12;5.70;;;3.60;;
78430;SDS011;67727;50.236;22.452;2023-04-15T12:48:49;7.40;;;5.40;;
78430;SDS011;67727;50.236;22.452;2023-04-15T12:51:24;7.90;;;5.80;;
78430;SDS011;67727;50.236;22.452;2023-04-15T12:54:04;8.20;;;5.50;;
78430;SDS011;67727;50.236;22.452;2023-04-15T12:56:33;5.90;;;4.50;;
78430;SDS011;67727;50.236;22.452;2023-04-15T12:59:12;9.00;;;3.80;;
78430;SDS011;67727;50.236;22.452;2023-04-15T13:02:06;5.80;;;4.70;;
78430;SDS011;67727;50.236;22.452;2023-04-15T13:04:40;5.00;;;3.40;;
78430;SDS011;67727;50.236;22.452;2023-04-15T13:07:16;5.10;;;3.60;;
78430;SDS011;67727;50.236;22.452;2023-04-15T13:10:20;8.40;;;5.50;;
78430;SDS011;67727;50.236;22.452;2023-04-15T13:12:51;5.50;;;4.00;;
78430;SDS011;67727;50.236;22.452;2023-04-15T13:15:22;10.80;;;4.80;;
78430;SDS011;67727;50.236;22.452;2023-04-15T13:20:28;5.50;;;3.90;;
78430;SDS011;67727;50.236;22.452;2023-04-15T13:23:19;8.50;;;5.60;;
78430;SDS011;67727;50.236;22.452;2023-04-15T13:25:58;11.80;;;7.20;;
78430;SDS011;67727;50.236;22.452;2023-04-15T13:28:30;9.80;;;6.90;;
78430;SDS011;67727;50.236;22.452;2023-04-15T13:31:00;6.90;;;4.20;;
78430;SDS011;67727;50.236;22.452;2023-04-15T13:33:35;11.70;;;5.40;;
78430;SDS011;67727;50.236;22.452;2023-04-15T13:36:10;15.60;;;6.80;;
78430;SDS011;67727;50.236;22.452;2023-04-15T13:38:45;8.90;;;5.00;;
78430;SDS011;67727;50.236;22.452;2023-04-15T13:41:27;13.00;;;5.20;;
78430;SDS011;67727;50.236;22.452;2023-04-15T13:44:34;7.50;;;4.00;;
78430;SDS011;67727;50.236;22.452;2023-04-15T13:47:20;19.00;;;10.00;;
78430;SDS011;67727;50.236;22.452;2023-04-15T13:49:59;19.20;;;9.70;;
78430;SDS011;67727;50.236;22.452;2023-04-15T13:52:40;10.20;;;5.60;;
78430;SDS011;67727;50.236;22.452;2023-04-15T13:55:20;6.70;;;4.30;;
78430;SDS011;67727;50.236;22.452;2023-04-15T13:57:50;8.10;;;4.80;;
78430;SDS011;67727;50.236;22.452;2023-04-15T14:00:26;10.70;;;5.50;;
78430;SDS011;67727;50.236;22.452;2023-04-15T14:02:54;51.50;;;23.60;;
78430;SDS011;67727;50.236;22.452;2023-04-15T14:05:36;134.70;;;65.20;;
78430;SDS011;67727;50.236;22.452;2023-04-15T14:08:08;179.20;;;85.90;;
78430;SDS011;67727;50.236;22.452;2023-04-15T14:10:45;75.60;;;37.90;;
78430;SDS011;67727;50.236;22.452;2023-04-15T14:13:32;80.40;;;37.00;;
78430;SDS011;67727;50.236;22.452;2023-04-15T14:16:14;27.60;;;14.40;;
78430;SDS011;67727;50.236;22.452;2023-04-15T14:19:04;27.50;;;14.20;;
78430;SDS011;67727;50.236;22.452;2023-04-15T14:21:57;16.70;;;10.30;;
78430;SDS011;67727;50.236;22.452;2023-04-15T14:24:44;12.80;;;8.60;;
78430;SDS011;67727;50.236;22.452;2023-04-15T14:27:30;7.70;;;6.20;;
78430;SDS011;67727;50.236;22.452;2023-04-15T14:30:13;5.50;;;4.10;;
78430;SDS011;67727;50.236;22.452;2023-04-15T14:33:05;5.00;;;3.20;;
78430;SDS011;67727;50.236;22.452;2023-04-15T14:35:45;6.10;;;3.30;;
78430;SDS011;67727;50.236;22.452;2023-04-15T14:38:19;7.50;;;4.40;;
78430;SDS011;67727;50.236;22.452;2023-04-15T14:41:02;8.60;;;3.90;;
78430;SDS011;67727;50.236;22.452;2023-04-15T14:43:46;5.50;;;3.00;;
78430;SDS011;67727;50.236;22.452;2023-04-15T14:46:24;4.10;;;3.30;;
78430;SDS011;67727;50.236;22.452;2023-04-15T14:49:01;6.00;;;4.50;;
78430;SDS011;67727;50.236;22.452;2023-04-15T14:51:43;6.80;;;4.00;;
78430;SDS011;67727;50.236;22.452;2023-04-15T14:54:12;8.00;;;5.10;;
78430;SDS011;67727;50.236;22.452;2023-04-15T14:56:46;6.00;;;3.70;;
78430;SDS011;67727;50.236;22.452;2023-04-15T14:59:36;9.70;;;5.20;;
78430;SDS011;67727;50.236;22.452;2023-04-15T15:02:17;5.10;;;3.50;;
78430;SDS011;67727;50.236;22.452;2023-04-15T15:04:46;5.20;;;3.00;;
78430;SDS011;67727;50.236;22.452;2023-04-15T15:07:27;7.40;;;4.10;;
78430;SDS011;67727;50.236;22.452;2023-04-15T15:09:54;5.00;;;3.30;;
78430;SDS011;67727;50.236;22.452;2023-04-15T15:12:25;6.20;;;3.80;;
78430;SDS011;67727;50.236;22.452;2023-04-15T15:15:02;8.00;;;4.20;;
78430;SDS011;67727;50.236;22.452;2023-04-15T15:17:40;4.30;;;2.40;;
78430;SDS011;67727;50.236;22.452;2023-04-15T15:20:12;8.30;;;4.50;;
78430;SDS011;67727;50.236;22.452;2023-04-15T15:22:39;9.60;;;5.00;;
78430;SDS011;67727;50.236;22.452;2023-04-15T15:25:15;31.20;;;10.50;;
78430;SDS011;67727;50.236;22.452;2023-04-15T15:27:42;18.50;;;7.20;;
78430;SDS011;67727;50.236;22.452;2023-04-15T15:30:25;27.40;;;15.20;;
78430;SDS011;67727;50.236;22.452;2023-04-15T15:32:56;32.60;;;16.80;;
78430;SDS011;67727;50.236;22.452;2023-04-15T15:35:24;34.20;;;18.00;;
78430;SDS011;67727;50.236;22.452;2023-04-15T15:38:01;31.60;;;16.60;;
78430;SDS011;67727;50.236;22.452;2023-04-15T15:40:30;25.90;;;15.70;;
78430;SDS011;67727;50.236;22.452;2023-04-15T15:42:57;24.80;;;15.40;;
78430;SDS011;67727;50.236;22.452;2023-04-15T15:45:24;26.80;;;15.50;;
78430;SDS011;67727;50.236;22.452;2023-04-15T15:47:56;20.40;;;12.00;;
78430;SDS011;67727;50.236;22.452;2023-04-15T15:50:41;18.40;;;12.00;;
78430;SDS011;67727;50.236;22.452;2023-04-15T15:53:11;25.20;;;15.00;;
78430;SDS011;67727;50.236;22.452;2023-04-15T15:56:03;56.40;;;31.60;;
78430;SDS011;67727;50.236;22.452;2023-04-15T15:58:33;39.50;;;23.00;;
78430;SDS011;67727;50.236;22.452;2023-04-15T16:01:11;105.70;;;54.30;;
78430;SDS011;67727;50.236;22.452;2023-04-15T16:03:44;110.20;;;52.70;;
78430;SDS011;67727;50.236;22.452;2023-04-15T16:06:19;274.30;;;97.90;;
78430;SDS011;67727;50.236;22.452;2023-04-15T16:08:51;166.70;;;71.70;;
78430;SDS011;67727;50.236;22.452;2023-04-15T16:11:28;173.20;;;75.50;;
78430;SDS011;67727;50.236;22.452;2023-04-15T16:13:57;231.50;;;82.30;;
78430;SDS011;67727;50.236;22.452;2023-04-15T16:16:40;162.90;;;67.80;;
78430;SDS011;67727;50.236;22.452;2023-04-15T16:19:20;276.50;;;87.30;;
78430;SDS011;67727;50.236;22.452;2023-04-15T16:21:52;249.10;;;83.80;;
78430;SDS011;67727;50.236;22.452;2023-04-15T16:24:24;173.20;;;66.60;;
78430;SDS011;67727;50.236;22.452;2023-04-15T16:26:58;98.30;;;45.10;;
78430;SDS011;67727;50.236;22.452;2023-04-15T16:29:28;91.60;;;40.70;;
78430;SDS011;67727;50.236;22.452;2023-04-15T16:32:02;82.60;;;36.60;;
78430;SDS011;67727;50.236;22.452;2023-04-15T16:34:32;133.50;;;50.80;;
78430;SDS011;67727;50.236;22.452;2023-04-15T16:37:02;144.40;;;51.60;;
78430;SDS011;67727;50.236;22.452;2023-04-15T16:39:29;79.40;;;34.00;;